Time;durP1;ratioP1;P1;durP2;ratioP2;P2;SDS_P1;SDS_P2;PMS_P1;PMS_P2;Temp;Humidity;BMP_temperature;BMP_pressure;BME280_temperature;BME280_humidity;BME280_pressure;Samples;Min_cycle;Max_cycle;Signal;HPM_P1;HPM_P2
2023/06/04 00:01:21;;;;;;;6.45;3.90;;;6.70;99.90;;;;;;5039080;28;20045;-28
2023/06/04 00:03:47;;;;;;;11.25;4.95;;;6.70;99.90;;;;;;5038657;28;20060;-28
2023/06/04 00:06:13;;;;;;;10.35;4.57;;;6.80;99.90;;;;;;5040005;28;20049;-28
2023/06/04 00:08:39;;;;;;;13.38;4.43;;;6.90;99.90;;;;;;5040562;28;20045;-29
2023/06/04 00:11:04;;;;;;;11.60;4.68;;;6.90;99.90;;;;;;5039590;28;20148;-29
2023/06/04 00:13:30;;;;;;;15.95;5.05;;;7.00;99.90;;;;;;5040751;28;20509;-28
2023/06/04 00:15:56;;;;;;;16.05;5.93;;;7.20;99.90;;;;;;5039850;28;20083;-28
2023/06/04 00:18:22;;;;;;;13.05;5.47;;;7.40;99.90;;;;;;5040155;28;20045;-28
2023/06/04 00:20:47;;;;;;;14.27;5.32;;;7.50;99.90;;;;;;5040861;28;20053;-29
2023/06/04 00:23:13;;;;;;;19.88;6.20;;;7.50;99.90;;;;;;5039041;28;20493;-28
2023/06/04 00:25:39;;;;;;;16.05;6.07;;;7.50;99.90;;;;;;5040144;28;20049;-28
2023/06/04 00:28:05;;;;;;;15.20;5.25;;;7.60;99.90;;;;;;5040059;28;20044;-29
2023/06/04 00:30:31;;;;;;;19.08;5.68;;;7.60;99.90;;;;;;5039096;28;20054;-28
2023/06/04 00:32:57;;;;;;;11.63;5.90;;;7.70;99.90;;;;;;5039751;28;20049;-28
2023/06/04 00:35:22;;;;;;;15.48;6.72;;;7.70;99.90;;;;;;5039717;28;20535;-28
2023/06/04 00:37:48;;;;;;;16.13;6.55;;;7.80;99.90;;;;;;5039713;28;20060;-28
2023/06/04 00:40:14;;;;;;;17.00;5.85;;;7.80;99.90;;;;;;5040502;28;20128;-28
2023/06/04 00:42:40;;;;;;;14.57;5.70;;;7.90;99.90;;;;;;5039306;28;20412;-28
2023/06/04 00:45:07;;;;;;;16.92;5.82;;;7.90;99.90;;;;;;5039674;28;20045;-28
2023/06/04 00:47:33;;;;;;;17.65;6.78;;;8.10;99.90;;;;;;5039688;28;20049;-28
2023/06/04 00:49:59;;;;;;;15.00;7.28;;;8.20;99.90;;;;;;5039637;28;20095;-28
2023/06/04 00:52:26;;;;;;;13.45;6.05;;;8.30;99.90;;;;;;5039597;28;20053;-28
2023/06/04 00:54:54;;;;;;;18.23;6.35;;;8.30;99.90;;;;;;5038372;28;20045;-28
2023/06/04 00:57:21;;;;;;;17.27;6.22;;;8.20;99.90;;;;;;5038579;28;20050;-29
2023/06/04 00:59:47;;;;;;;18.55;6.78;;;8.20;99.90;;;;;;5038494;28;20148;-28
2023/06/04 01:02:25;;;;;;;12.55;5.70;;;8.20;99.90;;;;;;5035669;28;20571;-28
2023/06/04 01:05:11;;;;;;;21.92;7.13;;;8.30;99.90;;;;;;5036474;28;20087;-28
2023/06/04 01:07:40;;;;;;;19.88;7.32;;;8.40;99.90;;;;;;5036369;28;20080;-28
2023/06/04 01:10:06;;;;;;;14.15;6.53;;;8.60;99.90;;;;;;5036285;28;20046;-29
2023/06/04 01:12:32;;;;;;;24.80;8.00;;;8.60;99.90;;;;;;5036085;28;20061;-28
2023/06/04 01:14:58;;;;;;;15.05;6.32;;;8.60;99.90;;;;;;5018685;28;20397;-28
2023/06/04 01:17:37;;;;;;;17.58;6.25;;;8.50;99.90;;;;;;5036171;28;20077;-28
2023/06/04 01:20:13;;;;;;;15.38;6.38;;;8.30;99.90;;;;;;5036021;28;20385;-28
2023/06/04 01:22:42;;;;;;;15.15;5.75;;;8.20;99.90;;;;;;5036013;28;20045;-27
2023/06/04 01:25:20;;;;;;;19.40;5.60;;;8.10;99.90;;;;;;5036592;28;20055;-28
2023/06/04 01:27:52;;;;;;;15.23;6.00;;;8.00;99.90;;;;;;5034576;28;20607;-28
2023/06/04 01:30:29;;;;;;;13.85;5.10;;;7.90;99.90;;;;;;5035260;28;20057;-28
2023/06/04 01:32:56;;;;;;;13.95;5.60;;;7.80;99.90;;;;;;5035334;28;20042;-28
2023/06/04 01:35:22;;;;;;;13.48;5.07;;;7.60;99.90;;;;;;5035808;28;20378;-28
2023/06/04 01:37:49;;;;;;;10.82;4.40;;;7.50;99.90;;;;;;5034606;28;20050;-28
2023/06/04 01:40:15;;;;;;;15.23;4.95;;;7.50;99.90;;;;;;5034564;28;20045;-28
2023/06/04 01:42:41;;;;;;;13.95;6.38;;;7.40;99.90;;;;;;5035626;28;20064;-28
2023/06/04 01:45:08;;;;;;;13.00;5.30;;;7.30;99.90;;;;;;5035589;28;20045;-28
2023/06/04 01:47:34;;;;;;;13.57;5.82;;;7.30;99.90;;;;;;5035571;28;20092;-28
2023/06/04 01:50:01;;;;;;;15.95;5.53;;;7.30;99.90;;;;;;5034538;28;20503;-28
2023/06/04 01:52:27;;;;;;;19.75;5.63;;;7.20;99.90;;;;;;5035440;28;20046;-28
2023/06/04 01:54:52;;;;;;;13.75;5.72;;;7.20;99.90;;;;;;5035422;28;20048;-29
2023/06/04 01:57:22;;;;;;;15.25;4.68;;;7.10;99.90;;;;;;5035093;28;20071;-28
2023/06/04 01:59:48;;;;;;;11.15;4.40;;;6.90;99.90;;;;;;5035906;28;20056;-28
2023/06/04 02:02:14;;;;;;;14.15;5.47;;;6.90;99.90;;;;;;5034628;28;20049;-28
2023/06/04 02:04:44;;;;;;;24.88;3.70;;;6.80;99.90;;;;;;5034119;28;20054;-28
2023/06/04 02:07:13;;;;;;;106.40;4.75;;;6.70;99.90;;;;;;5017907;28;20124;-28
2023/06/04 02:09:38;;;;;;;9.27;2.03;;;6.70;99.90;;;;;;5034202;28;20099;-28
2023/06/04 02:12:05;;;;;;;24.17;2.70;;;6.60;99.90;;;;;;5035331;28;20389;-28
2023/06/04 02:14:30;;;;;;;5.25;1.80;;;6.50;99.90;;;;;;5035053;28;20068;-28
2023/06/04 02:16:57;;;;;;;8.90;2.55;;;6.40;99.90;;;;;;5035564;28;20469;-28
2023/06/04 02:19:27;;;;;;;13.90;2.15;;;6.30;99.90;;;;;;5034932;28;20164;-28
2023/06/04 02:21:53;;;;;;;19.40;1.90;;;6.20;99.90;;;;;;5034913;28;20049;-28
2023/06/04 02:24:20;;;;;;;2.90;1.20;;;6.00;99.90;;;;;;5034545;28;20489;-28
2023/06/04 02:26:46;;;;;;;45.03;3.03;;;5.90;99.90;;;;;;5035401;28;20064;-28
2023/06/04 02:29:12;;;;;;;61.60;3.05;;;5.80;99.90;;;;;;5034199;28;20130;-28
2023/06/04 02:31:37;;;;;;;6.90;1.60;;;5.60;99.90;;;;;;5034802;28;20155;-28
2023/06/04 02:34:03;;;;;;;2.35;0.90;;;5.50;99.90;;;;;;5034709;28;20049;-28
2023/06/04 02:36:30;;;;;;;21.58;1.92;;;5.40;99.90;;;;;;5034611;28;20045;-28
2023/06/04 02:38:56;;;;;;;69.93;3.42;;;5.30;99.90;;;;;;5034381;28;20050;-30
2023/06/04 02:41:22;;;;;;;34.97;3.60;;;5.30;99.90;;;;;;5033422;28;20049;-28
2023/06/04 02:43:48;;;;;;;5.50;2.40;;;5.20;99.90;;;;;;5033762;28;20045;-28
2023/06/04 02:46:14;;;;;;;4.30;1.95;;;5.20;99.90;;;;;;5034467;28;20071;-28
2023/06/04 02:48:40;;;;;;;4.25;2.03;;;5.10;99.90;;;;;;5034389;28;20053;-28
2023/06/04 02:51:09;;;;;;;2.92;1.70;;;5.00;99.90;;;;;;5034240;28;20084;-28
2023/06/04 02:53:36;;;;;;;5.35;2.95;;;5.00;99.90;;;;;;5034182;28;20057;-28
2023/06/04 02:56:01;;;;;;;4.70;3.10;;;4.90;99.90;;;;;;5033294;28;20045;-28
2023/06/04 02:58:28;;;;;;;7.00;3.25;;;5.00;99.90;;;;;;5033271;28;20049;-28
2023/06/04 03:00:54;;;;;;;9.13;3.43;;;5.00;99.90;;;;;;5034219;28;20072;-28
2023/06/04 03:03:20;;;;;;;3.63;2.25;;;5.00;99.90;;;;;;5034878;28;20049;-28
2023/06/04 03:05:46;;;;;;;6.87;2.33;;;5.00;99.90;;;;;;5034923;28;20474;-28
2023/06/04 03:08:12;;;;;;;5.70;3.17;;;4.90;99.90;;;;;;5033113;28;20049;-27
2023/06/04 03:10:37;;;;;;;23.55;4.30;;;4.90;99.90;;;;;;5033655;28;20111;-28
2023/06/04 03:13:04;;;;;;;71.68;5.47;;;4.80;99.90;;;;;;5032801;28;20397;-28
2023/06/04 03:15:29;;;;;;;121.10;8.00;;;4.80;99.90;;;;;;5032998;28;20047;-29
2023/06/04 03:17:56;;;;;;;22.83;5.30;;;4.70;99.90;;;;;;5016913;28;20056;-28
2023/06/04 03:20:24;;;;;;;8.73;3.50;;;4.70;99.90;;;;;;5033678;28;20092;-28
2023/06/04 03:22:50;;;;;;;18.85;4.13;;;4.70;99.90;;;;;;5032114;28;20049;-28
2023/06/04 03:25:16;;;;;;;161.20;8.07;;;4.70;99.90;;;;;;5033877;28;20053;-28
2023/06/04 03:27:42;;;;;;;153.03;8.20;;;4.70;99.90;;;;;;5033800;28;20111;-27
2023/06/04 03:30:08;;;;;;;4.47;3.13;;;4.70;99.90;;;;;;5032593;28;20096;-28
2023/06/04 03:32:35;;;;;;;3.53;2.60;;;4.60;99.90;;;;;;5034221;28;20053;-28
2023/06/04 03:35:02;;;;;;;27.83;4.03;;;4.60;99.90;;;;;;5033668;28;20041;-28
2023/06/04 03:37:28;;;;;;;56.83;5.10;;;4.60;99.90;;;;;;5033536;28;20132;-28
2023/06/04 03:39:54;;;;;;;149.30;7.97;;;4.60;99.90;;;;;;5033033;28;20072;-28
2023/06/04 03:42:19;;;;;;;97.90;5.63;;;4.70;99.90;;;;;;5016462;28;20495;-28
2023/06/04 03:44:46;;;;;;;178.50;9.27;;;4.70;99.90;;;;;;5032497;28;20084;-28
2023/06/04 03:47:11;;;;;;;199.67;11.20;;;4.70;99.90;;;;;;5033542;28;20091;-28
2023/06/04 03:49:37;;;;;;;224.13;10.27;;;4.70;99.90;;;;;;5032866;28;20087;-29
2023/06/04 03:52:03;;;;;;;236.33;10.67;;;4.70;99.90;;;;;;5032435;28;20044;-29
2023/06/04 03:54:29;;;;;;;45.97;5.63;;;4.80;99.90;;;;;;5033900;28;20050;-28
2023/06/04 03:56:55;;;;;;;218.70;9.65;;;4.90;99.90;;;;;;5032783;28;20042;-29
2023/06/04 03:59:21;;;;;;;159.87;9.10;;;5.00;99.90;;;;;;5016031;28;20132;-28
2023/06/04 04:01:46;;;;;;;116.37;6.83;;;5.00;99.90;;;;;;5033451;28;20124;-28
2023/06/04 04:04:12;;;;;;;180.23;8.87;;;5.10;99.90;;;;;;5033467;28;20054;-28
2023/06/04 04:06:38;;;;;;;39.07;5.60;;;5.20;99.90;;;;;;5032096;28;20060;-29
2023/06/04 04:09:06;;;;;;;140.40;8.13;;;5.30;99.90;;;;;;5033568;28;20042;-27
2023/06/04 04:11:32;;;;;;;159.25;9.18;;;5.40;99.90;;;;;;5033501;28;20564;-28
2023/06/04 04:13:58;;;;;;;129.38;8.13;;;5.50;99.90;;;;;;5033255;28;20132;-28
2023/06/04 04:16:24;;;;;;;49.83;6.28;;;5.60;99.90;;;;;;5033395;28;20042;-28
2023/06/04 04:18:50;;;;;;;133.80;9.80;;;5.70;99.90;;;;;;5033017;28;20068;-26
2023/06/04 04:21:16;;;;;;;145.57;9.13;;;5.70;99.90;;;;;;5033231;28;20556;-28
2023/06/04 04:23:44;;;;;;;18.10;6.28;;;5.80;99.90;;;;;;5033009;28;20053;-28
2023/06/04 04:26:10;;;;;;;15.60;6.40;;;5.90;99.90;;;;;;5032412;28;20049;-27
2023/06/04 04:28:36;;;;;;;8.93;5.50;;;6.00;99.90;;;;;;5033489;28;20054;-28
2023/06/04 04:31:02;;;;;;;11.40;5.97;;;6.20;99.90;;;;;;4999551;28;20049;-28
2023/06/04 04:33:32;;;;;;;11.43;6.93;;;6.20;99.90;;;;;;5033161;28;20046;-28
2023/06/04 04:36:01;;;;;;;15.18;7.68;;;6.30;99.90;;;;;;5035820;28;20505;-28
2023/06/04 04:38:28;;;;;;;20.92;8.55;;;6.50;99.90;;;;;;5035920;28;20104;-28
2023/06/04 04:40:55;;;;;;;13.90;8.15;;;6.60;99.90;;;;;;5037675;28;20128;-27
2023/06/04 04:43:39;;;;;;;17.27;8.07;;;6.80;99.90;;;;;;5035489;28;20408;-27
2023/06/04 04:46:07;;;;;;;15.85;9.50;;;7.00;99.90;;;;;;5035991;28;20053;-28
2023/06/04 04:48:33;;;;;;;21.05;9.85;;;7.20;99.90;;;;;;5036575;28;20045;-27
2023/06/04 04:50:59;;;;;;;20.60;10.45;;;7.40;99.90;;;;;;5035269;28;20095;-28
2023/06/04 04:53:26;;;;;;;24.58;12.32;;;7.60;99.90;;;;;;5036591;28;20045;-28
2023/06/04 04:55:52;;;;;;;23.08;12.88;;;7.80;99.90;;;;;;5036655;28;20397;-28
2023/06/04 04:58:18;;;;;;;30.70;15.98;;;8.00;99.90;;;;;;5036400;28;20060;-28
2023/06/04 05:00:44;;;;;;;33.70;17.52;;;8.30;99.90;;;;;;5036345;28;20052;-28
2023/06/04 05:03:10;;;;;;;40.05;18.30;;;8.60;99.90;;;;;;5036242;28;20132;-28
2023/06/04 05:05:35;;;;;;;39.38;18.60;;;9.10;99.90;;;;;;5036607;28;20507;-28
2023/06/04 05:08:01;;;;;;;33.15;18.95;;;10.00;99.90;;;;;;5036284;28;20084;-28
2023/06/04 05:10:27;;;;;;;39.10;18.77;;;10.90;99.90;;;;;;5036134;28;20050;-28
2023/06/04 05:12:57;;;;;;;31.83;17.17;;;11.70;99.90;;;;;;5036088;28;20052;-29
2023/06/04 05:15:26;;;;;;;36.28;17.40;;;12.40;99.90;;;;;;5020077;28;20100;-29
2023/06/04 05:17:52;;;;;;;30.65;16.27;;;12.80;99.90;;;;;;5036349;28;20396;-28
2023/06/04 05:20:20;;;;;;;25.70;13.35;;;13.20;99.90;;;;;;5018445;28;20450;-28
2023/06/04 05:22:46;;;;;;;23.67;12.93;;;13.80;99.90;;;;;;5036202;28;20384;-28
2023/06/04 05:25:12;;;;;;;30.05;13.35;;;14.20;99.90;;;;;;5034582;28;20136;-28
2023/06/04 05:27:40;;;;;;;24.85;11.63;;;14.70;99.90;;;;;;5035836;28;20049;-28
2023/06/04 05:30:06;;;;;;;17.40;9.93;;;15.20;99.90;;;;;;5035804;28;20053;-28
2023/06/04 05:32:32;;;;;;;20.60;9.18;;;15.10;99.90;;;;;;5035843;28;20041;-27
2023/06/04 05:34:59;;;;;;;23.30;8.02;;;16.10;99.90;;;;;;5035716;28;20055;-28
2023/06/04 05:37:28;;;;;;;14.40;6.75;;;16.00;36.40;;;;;;5036206;28;20046;-28
2023/06/04 05:39:56;;;;;;;16.65;6.53;;;16.20;1.00;;;;;;5035668;28;20132;-28
2023/06/04 05:42:23;;;;;;;13.20;5.55;;;16.40;1.00;;;;;;5035288;28;20481;-27
2023/06/04 05:44:50;;;;;;;13.05;4.70;;;16.50;99.90;;;;;;5035494;28;20055;-27
2023/06/04 05:47:19;;;;;;;13.02;4.07;;;16.70;99.90;;;;;;5033298;28;20049;-28
2023/06/04 05:49:45;;;;;;;15.15;4.65;;;16.90;99.90;;;;;;5035769;28;20079;-28
2023/06/04 05:52:10;;;;;;;12.45;3.67;;;17.10;99.90;;;;;;5035394;28;20052;-28
2023/06/04 05:54:39;;;;;;;9.45;3.70;;;17.30;99.90;;;;;;5035954;28;20106;-28
2023/06/04 05:57:06;;;;;;;11.02;4.28;;;17.20;20.70;;;;;;5035339;28;20049;-29
2023/06/04 05:59:32;;;;;;;8.57;2.90;;;17.30;1.00;;;;;;5036036;28;20053;-28
2023/06/04 06:01:58;;;;;;;13.05;3.85;;;17.50;1.00;;;;;;5033976;28;20048;-29
2023/06/04 06:04:24;;;;;;;12.75;4.03;;;17.70;1.00;;;;;;5035117;28;20107;-28
2023/06/04 06:06:49;;;;;;;14.45;3.30;;;17.70;99.90;;;;;;5035868;28;20465;-30
2023/06/04 06:09:16;;;;;;;12.57;2.80;;;17.70;99.90;;;;;;5035094;28;20128;-29
2023/06/04 06:11:42;;;;;;;9.13;2.55;;;17.50;90.50;;;;;;5034826;28;20507;-30
2023/06/04 06:14:08;;;;;;;10.23;2.90;;;17.50;67.30;;;;;;5034922;28;20037;-28
2023/06/04 06:16:33;;;;;;;14.02;2.90;;;17.50;3.80;;;;;;5001302;28;20080;-29
2023/06/04 06:19:01;;;;;;;11.52;2.70;;;17.50;1.00;;;;;;5034824;28;20050;-28
2023/06/04 06:21:27;;;;;;;8.43;2.53;;;17.70;1.00;;;;;;5016985;28;20409;-29
2023/06/04 06:23:54;;;;;;;10.07;3.45;;;18.10;99.90;;;;;;5034141;28;20069;-28
2023/06/04 06:26:19;;;;;;;7.25;3.15;;;18.50;99.90;;;;;;5035088;28;20111;-28
2023/06/04 06:28:45;;;;;;;7.43;2.50;;;18.80;99.90;;;;;;5035325;28;20505;-29
2023/06/04 06:31:11;;;;;;;8.95;2.67;;;18.90;1.00;;;;;;5034668;28;20053;-27
2023/06/04 06:33:40;;;;;;;10.23;3.30;;;18.70;99.90;;;;;;5033508;28;20073;-29
2023/06/04 06:36:13;;;;;;;14.95;3.00;;;18.60;4.20;;;;;;5034603;28;20124;-29
2023/06/04 06:38:40;;;;;;;10.88;2.50;;;18.90;99.90;;;;;;5033398;28;20084;-29
2023/06/04 06:41:06;;;;;;;11.05;2.60;;;19.30;99.90;;;;;;5033792;28;20042;-28
2023/06/04 06:43:33;;;;;;;9.60;2.88;;;19.60;1.00;;;;;;5034267;28;20552;-29
2023/06/04 06:45:58;;;;;;;6.32;2.22;;;19.60;1.00;;;;;;5034315;28;20054;-29
2023/06/04 06:48:24;;;;;;;7.90;2.20;;;19.70;99.90;;;;;;5034366;28;20042;-29
2023/06/04 06:50:50;;;;;;;8.85;2.45;;;19.60;99.90;;;;;;5034329;28;20503;-29
2023/06/04 06:53:16;;;;;;;7.45;2.10;;;19.70;1.00;;;;;;5033859;28;20124;-29
2023/06/04 06:55:42;;;;;;;7.30;2.05;;;19.70;1.00;;;;;;5035055;28;20080;-29
2023/06/04 06:58:07;;;;;;;8.10;2.70;;;19.70;99.90;;;;;;5033075;28;20064;-29
2023/06/04 07:00:33;;;;;;;9.40;2.20;;;19.70;99.90;;;;;;5034072;28;20049;-30
2023/06/04 07:02:59;;;;;;;5.00;1.83;;;19.50;99.90;;;;;;5034843;28;20095;-31
2023/06/04 07:05:24;;;;;;;7.85;2.75;;;19.60;99.90;;;;;;5033660;28;20128;-30
2023/06/04 07:07:50;;;;;;;8.18;3.55;;;19.60;99.90;;;;;;5033998;28;20050;-29
2023/06/04 07:10:16;;;;;;;7.82;1.92;;;19.80;74.40;;;;;;5032764;28;20045;-29
2023/06/04 07:12:41;;;;;;;8.52;2.25;;;20.00;1.00;;;;;;5033865;28;20041;-29
2023/06/04 07:15:09;;;;;;;7.20;2.20;;;20.40;1.00;;;;;;5000965;28;20053;-29
2023/06/04 07:17:35;;;;;;;5.63;2.15;;;20.70;1.00;;;;;;5032918;28;20435;-29
2023/06/04 07:20:01;;;;;;;6.03;2.03;;;21.00;99.90;;;;;;5034048;28;20084;-29
2023/06/04 07:22:26;;;;;;;4.57;1.50;;;20.90;99.90;;;;;;5034038;28;20512;-29
2023/06/04 07:24:52;;;;;;;6.03;1.75;;;20.50;99.90;;;;;;5033905;28;20508;-29
2023/06/04 07:27:19;;;;;;;4.55;2.00;;;20.50;99.90;;;;;;5033633;28;20485;-29
2023/06/04 07:29:45;;;;;;;5.72;1.67;;;21.00;99.90;;;;;;5033207;28;20053;-30
2023/06/04 07:32:12;;;;;;;5.10;2.10;;;20.80;93.20;;;;;;5033776;28;20045;-29
2023/06/04 07:34:38;;;;;;;4.57;1.45;;;20.60;44.20;;;;;;5033559;28;20037;-31
2023/06/04 07:37:04;;;;;;;5.85;1.63;;;20.70;58.50;;;;;;5033529;28;20489;-29
2023/06/04 07:39:30;;;;;;;3.40;1.42;;;20.70;24.40;;;;;;5032349;28;20041;-29
2023/06/04 07:41:56;;;;;;;7.00;2.08;;;20.80;1.00;;;;;;5033554;28;20049;-29
2023/06/04 07:44:21;;;;;;;4.03;1.23;;;20.50;1.00;;;;;;5033510;28;20128;-30
2023/06/04 07:46:48;;;;;;;3.63;1.42;;;20.50;1.00;;;;;;5032337;28;20046;-29
2023/06/04 07:49:14;;;;;;;4.47;1.35;;;20.40;1.00;;;;;;5033993;28;20045;-29
2023/06/04 07:51:39;;;;;;;4.63;1.63;;;20.80;1.00;;;;;;5032453;28;20053;-28
2023/06/04 07:54:05;;;;;;;5.28;2.08;;;21.10;1.00;;;;;;5033386;28;20037;-29
2023/06/04 07:56:31;;;;;;;5.88;1.27;;;21.20;1.00;;;;;;5033424;28;20038;-29
2023/06/04 07:58:56;;;;;;;6.47;1.42;;;21.10;1.00;;;;;;5033090;28;20057;-29
2023/06/04 08:01:23;;;;;;;4.03;1.25;;;21.20;99.90;;;;;;5033310;28;20081;-29
2023/06/04 08:03:49;;;;;;;5.63;1.60;;;21.20;99.90;;;;;;5032222;28;20408;-29
2023/06/04 08:06:15;;;;;;;5.88;1.60;;;21.10;99.90;;;;;;5033824;28;20053;-29
2023/06/04 08:08:45;;;;;;;5.30;1.70;;;21.10;99.90;;;;;;5032098;28;20054;-30
2023/06/04 08:11:15;;;;;;;3.65;1.38;;;21.20;99.90;;;;;;5037213;28;20172;-30
2023/06/04 08:13:41;;;;;;;4.60;1.58;;;21.30;99.90;;;;;;5036315;28;20045;-30
2023/06/04 08:16:10;;;;;;;6.47;2.05;;;21.30;99.90;;;;;;5037217;28;20401;-29
2023/06/04 08:18:39;;;;;;;5.65;1.52;;;21.60;99.90;;;;;;5035895;28;20053;-29
2023/06/04 08:21:06;;;;;;;4.53;1.40;;;21.70;99.90;;;;;;5037010;28;20053;-29
2023/06/04 08:23:32;;;;;;;3.70;1.40;;;21.90;99.90;;;;;;5036743;28;20103;-29
2023/06/04 08:25:58;;;;;;;5.93;1.60;;;22.20;99.90;;;;;;5036392;28;20092;-29
2023/06/04 08:28:24;;;;;;;4.45;1.50;;;22.60;99.90;;;;;;5036896;28;20060;-29
2023/06/04 08:30:50;;;;;;;4.68;1.45;;;22.60;99.90;;;;;;5036893;28;20045;-29
2023/06/04 08:33:16;;;;;;;3.85;1.40;;;22.10;99.90;;;;;;5036877;28;20091;-29
2023/06/04 08:35:42;;;;;;;4.43;1.48;;;22.40;99.90;;;;;;5037143;28;20405;-30
2023/06/04 08:38:08;;;;;;;4.72;1.33;;;22.60;99.90;;;;;;5036841;28;20049;-29
2023/06/04 08:40:36;;;;;;;6.40;1.67;;;22.60;99.90;;;;;;5019076;28;20048;-30
2023/06/04 08:43:03;;;;;;;4.30;1.70;;;22.90;99.90;;;;;;5036535;28;20041;-30
2023/06/04 08:45:38;;;;;;;3.60;1.52;;;22.60;99.90;;;;;;5019160;28;20080;-29
2023/06/04 08:48:07;;;;;;;5.30;1.50;;;22.20;99.90;;;;;;5036826;28;20049;-30
2023/06/04 08:50:33;;;;;;;7.93;1.90;;;22.60;99.90;;;;;;5036446;28;20045;-30
2023/06/04 08:52:59;;;;;;;3.97;1.20;;;22.60;99.90;;;;;;5036392;28;20038;-30
2023/06/04 08:55:26;;;;;;;4.07;1.20;;;23.00;99.90;;;;;;5036323;28;20477;-30
2023/06/04 08:57:52;;;;;;;3.92;1.48;;;22.80;99.20;;;;;;5019072;28;20049;-31
2023/06/04 09:00:18;;;;;;;3.92;1.40;;;22.90;81.90;;;;;;5036582;28;20081;-29
2023/06/04 09:02:45;;;;;;;4.47;1.42;;;22.80;78.80;;;;;;5035054;28;20132;-29
2023/06/04 09:05:19;;;;;;;5.47;1.30;;;22.90;88.60;;;;;;5037015;28;20041;-30
2023/06/04 09:07:46;;;;;;;4.35;1.25;;;22.80;45.90;;;;;;5036289;28;20053;-31
2023/06/04 09:10:15;;;;;;;3.90;0.93;;;22.70;51.80;;;;;;5018398;28;20132;-29
2023/06/04 09:12:46;;;;;;;3.10;1.30;;;22.70;47.60;;;;;;5034881;28;20349;-30
2023/06/04 09:15:12;;;;;;;2.75;1.10;;;22.70;18.80;;;;;;5036280;28;20064;-29
2023/06/04 09:17:38;;;;;;;4.32;1.40;;;23.00;29.40;;;;;;5036064;28;20468;-30
2023/06/04 09:20:05;;;;;;;5.00;0.80;;;22.80;12.90;;;;;;5035664;28;20099;-29
2023/06/04 09:22:37;;;;;;;4.70;1.00;;;23.00;17.10;;;;;;5034859;28;20045;-29
2023/06/04 09:25:18;;;;;;;3.92;1.38;;;23.20;21.20;;;;;;5034750;28;20511;-29
2023/06/04 09:27:44;;;;;;;3.88;0.93;;;23.50;52.50;;;;;;5035942;28;20053;-29
2023/06/04 09:30:10;;;;;;;2.50;1.33;;;23.80;40.10;;;;;;5018134;28;20052;-30
2023/06/04 09:32:36;;;;;;;4.65;1.10;;;23.70;42.20;;;;;;5034613;28;20057;-30
2023/06/04 09:35:12;;;;;;;3.67;1.35;;;23.80;31.00;;;;;;5036347;28;20053;-29
2023/06/04 09:37:40;;;;;;;3.95;1.52;;;23.60;30.60;;;;;;5036277;28;20136;-29
2023/06/04 09:40:07;;;;;;;3.38;1.20;;;23.50;35.90;;;;;;5035730;28;20041;-29
2023/06/04 09:42:45;;;;;;;4.05;1.30;;;23.70;26.60;;;;;;5035701;28;20084;-30
2023/06/04 09:45:12;;;;;;;4.88;1.50;;;23.50;1.70;;;;;;5035562;28;20089;-29
2023/06/04 09:47:42;;;;;;;4.68;1.08;;;23.10;1.00;;;;;;5018126;28;20045;-30
2023/06/04 09:50:09;;;;;;;3.63;1.10;;;23.30;7.10;;;;;;5036369;28;20068;-29
2023/06/04 09:52:35;;;;;;;4.65;1.13;;;23.20;11.40;;;;;;5034377;28;20489;-30
2023/06/04 09:55:00;;;;;;;3.63;1.58;;;23.40;24.80;;;;;;5036228;28;20488;-29
2023/06/04 09:57:29;;;;;;;3.65;1.48;;;23.50;33.30;;;;;;5034279;28;20069;-30
2023/06/04 09:59:56;;;;;;;3.30;1.15;;;23.60;26.90;;;;;;5035823;28;20049;-30
2023/06/04 10:02:22;;;;;;;2.47;1.48;;;23.60;36.50;;;;;;5034281;28;20045;-30
2023/06/04 10:04:59;;;;;;;3.25;1.08;;;23.80;40.20;;;;;;5033900;28;20053;-30
2023/06/04 10:07:26;;;;;;;4.43;1.75;;;23.60;28.80;;;;;;5035213;28;20132;-30
2023/06/04 10:09:53;;;;;;;4.97;1.02;;;23.80;50.10;;;;;;5035040;28;20045;-30
2023/06/04 10:12:26;;;;;;;2.05;1.05;;;24.00;55.30;;;;;;5035660;28;20529;-29
2023/06/04 10:14:57;;;;;;;1.98;1.05;;;24.10;70.00;;;;;;5035307;28;20037;-30
2023/06/04 10:17:24;;;;;;;4.53;1.15;;;23.80;44.50;;;;;;5034875;28;20076;-29
2023/06/04 10:19:51;;;;;;;2.65;1.00;;;24.00;62.00;;;;;;5034798;28;20049;-29
2023/06/04 10:22:18;;;;;;;2.05;1.17;;;24.10;90.00;;;;;;5034826;28;20054;-31
2023/06/04 10:24:44;;;;;;;5.50;1.13;;;24.30;95.40;;;;;;5033428;28;20065;-30
2023/06/04 10:27:12;;;;;;;5.25;1.35;;;24.10;54.10;;;;;;5034825;28;20551;-30
2023/06/04 10:29:39;;;;;;;3.05;1.02;;;23.90;25.20;;;;;;5034695;28;20049;-30
2023/06/04 10:32:05;;;;;;;4.05;0.82;;;23.70;18.00;;;;;;5035174;28;20549;-30
2023/06/04 10:34:32;;;;;;;2.67;1.00;;;23.80;37.40;;;;;;5017016;28;20053;-29
2023/06/04 10:36:58;;;;;;;4.15;1.30;;;23.50;16.60;;;;;;5034623;28;20053;-30
2023/06/04 10:39:33;;;;;;;6.30;1.30;;;23.50;24.00;;;;;;5034448;28;20069;-29
2023/06/04 10:42:03;;;;;;;4.95;0.88;;;23.50;30.00;;;;;;5034289;28;20081;-30
2023/06/04 10:44:47;;;;;;;3.50;1.17;;;23.70;60.70;;;;;;5034878;28;20048;-29
2023/06/04 10:47:23;;;;;;;4.28;1.30;;;24.30;80.00;;;;;;5033772;28;20050;-30
2023/06/04 10:49:51;;;;;;;3.45;1.38;;;24.30;70.80;;;;;;5034288;28;20049;-29
2023/06/04 10:52:17;;;;;;;2.92;1.42;;;24.10;68.20;;;;;;5034239;28;20483;-30
2023/06/04 10:54:45;;;;;;;5.53;1.95;;;24.00;77.40;;;;;;5034287;28;20041;-30
2023/06/04 10:57:15;;;;;;;3.08;1.30;;;24.20;89.70;;;;;;5033248;28;20081;-30
2023/06/04 10:59:41;;;;;;;4.70;1.23;;;24.60;93.90;;;;;;5035071;28;20049;-30
2023/06/04 11:02:08;;;;;;;3.53;1.45;;;24.50;86.30;;;;;;5033819;28;20368;-30
2023/06/04 11:04:35;;;;;;;2.22;0.90;;;24.30;68.00;;;;;;5034011;28;20445;-30
2023/06/04 11:07:03;;;;;;;4.57;1.52;;;24.20;71.00;;;;;;5033652;28;20049;-31
2023/06/04 11:09:29;;;;;;;4.18;1.67;;;24.50;87.90;;;;;;5034010;28;20053;-31
2023/06/04 11:12:01;;;;;;;3.47;1.60;;;24.70;87.00;;;;;;5034299;28;20041;-29
2023/06/04 11:14:27;;;;;;;7.18;1.17;;;24.70;77.90;;;;;;5033993;28;20128;-31
2023/06/04 11:16:53;;;;;;;3.65;1.50;;;24.40;54.90;;;;;;5033935;28;20124;-32
2023/06/04 11:19:19;;;;;;;3.88;1.15;;;24.20;41.20;;;;;;5033761;28;20056;-30
2023/06/04 11:21:45;;;;;;;3.38;1.30;;;24.10;48.50;;;;;;5034588;28;20045;-30
2023/06/04 11:24:12;;;;;;;4.20;1.30;;;24.50;59.20;;;;;;5033480;28;20061;-30
2023/06/04 11:26:38;;;;;;;4.97;1.50;;;24.70;67.30;;;;;;5034318;28;20050;-30
2023/06/04 11:29:11;;;;;;;4.65;1.90;;;24.30;37.00;;;;;;5032709;28;20049;-29
2023/06/04 11:31:45;;;;;;;4.15;1.30;;;23.70;18.50;;;;;;5032744;28;20527;-30
2023/06/04 11:34:21;;;;;;;2.65;1.27;;;24.10;29.40;;;;;;5033353;28;20084;-30
2023/06/04 11:36:49;;;;;;;5.25;1.20;;;24.20;39.10;;;;;;5033733;28;20073;-30
2023/06/04 11:39:15;;;;;;;2.85;1.17;;;24.30;51.50;;;;;;5033557;28;20053;-30
2023/06/04 11:41:42;;;;;;;3.85;1.40;;;24.50;41.40;;;;;;5017166;28;20052;-30
2023/06/04 11:44:08;;;;;;;4.30;1.48;;;24.00;39.00;;;;;;5033063;28;20103;-30
2023/06/04 11:46:35;;;;;;;2.50;0.98;;;24.20;55.40;;;;;;5033464;28;20046;-30
2023/06/04 11:49:02;;;;;;;3.80;1.30;;;24.50;74.30;;;;;;5032725;28;20049;-30
2023/06/04 11:51:28;;;;;;;3.90;1.40;;;24.70;75.00;;;;;;5034351;28;20037;-30
2023/06/04 11:53:55;;;;;;;5.07;1.30;;;24.80;56.90;;;;;;5032354;28;20124;-30
2023/06/04 11:56:23;;;;;;;3.22;1.05;;;24.90;59.20;;;;;;5033509;28;20045;-30
2023/06/04 11:58:49;;;;;;;3.75;1.40;;;24.90;65.00;;;;;;5032465;28;20053;-31
2023/06/04 12:01:15;;;;;;;4.95;1.25;;;24.50;60.60;;;;;;5033376;28;20390;-30
2023/06/04 12:03:42;;;;;;;1.58;0.75;;;24.70;53.70;;;;;;5033241;28;20045;-31
2023/06/04 12:06:19;;;;;;;3.80;1.15;;;24.50;46.30;;;;;;5033261;28;20060;-30
2023/06/04 12:08:55;;;;;;;2.33;0.95;;;24.90;75.10;;;;;;5033367;28;20050;-29
2023/06/04 12:11:32;;;;;;;2.92;1.23;;;24.90;80.30;;;;;;5033189;28;20046;-30
2023/06/04 12:14:05;;;;;;;3.63;1.27;;;24.90;74.30;;;;;;5032054;28;20061;-30
2023/06/04 12:16:32;;;;;;;2.63;1.00;;;25.00;65.50;;;;;;5032555;28;20056;-30
2023/06/04 12:19:09;;;;;;;2.97;1.20;;;25.10;91.60;;;;;;5031870;28;20103;-30
2023/06/04 12:21:36;;;;;;;3.30;1.27;;;24.70;63.30;;;;;;5031948;28;20081;-30
2023/06/04 12:24:09;;;;;;;4.53;1.40;;;24.70;54.30;;;;;;5031626;28;20060;-30
2023/06/04 12:26:40;;;;;;;1.75;0.98;;;24.30;29.90;;;;;;5033436;28;20187;-30
2023/06/04 12:29:17;;;;;;;3.65;1.60;;;24.20;26.10;;;;;;5033222;28;20046;-30
2023/06/04 12:31:46;;;;;;;5.00;1.40;;;24.00;13.60;;;;;;5033505;28;20037;-30
2023/06/04 12:34:17;;;;;;;4.15;1.50;;;24.10;35.60;;;;;;5032874;28;20096;-29
2023/06/04 12:36:43;;;;;;;3.75;1.30;;;24.10;32.00;;;;;;5033087;28;20053;-31
2023/06/04 12:39:09;;;;;;;4.68;1.25;;;23.10;7.40;;;;;;5031792;28;20493;-30
2023/06/04 12:41:34;;;;;;;3.00;0.98;;;23.50;23.20;;;;;;5033013;28;20042;-30
2023/06/04 12:44:02;;;;;;;1.77;1.00;;;23.30;17.40;;;;;;5031886;28;20500;-30
2023/06/04 12:46:28;;;;;;;3.25;1.40;;;23.20;22.60;;;;;;5032999;28;20049;-31